Time;durP1;ratioP1;P1;durP2;ratioP2;P2;SDS_P1;SDS_P2;PMS_P1;PMS_P2;Temp;Humidity;BMP_temperature;BMP_pressure;BME280_temperature;BME280_humidity;BME280_pressure;Samples;Min_cycle;Max_cycle;Signal;HPM_P1;HPM_P2
2023/01/23 00:01:01;;;;;;;10.18;3.40;;;3.10;99.90;;;;;;4988194;28;20113;-63
2023/01/23 00:03:28;;;;;;;8.18;3.03;;;3.10;99.90;;;;;;4986271;28;20611;-63
2023/01/23 00:06:03;;;;;;;5.18;2.90;;;3.10;99.90;;;;;;4987297;28;20563;-63
2023/01/23 00:08:30;;;;;;;11.32;3.00;;;3.10;99.90;;;;;;4987617;28;20066;-63
2023/01/23 00:10:56;;;;;;;14.25;3.92;;;3.00;99.90;;;;;;4969491;28;20650;-63
2023/01/23 00:13:22;;;;;;;12.18;3.22;;;3.00;99.90;;;;;;4970091;28;20065;-63
2023/01/23 00:15:48;;;;;;;9.77;2.85;;;3.10;99.90;;;;;;4985592;28;20046;-63
2023/01/23 00:18:14;;;;;;;23.08;3.30;;;3.00;99.90;;;;;;4987630;28;20056;-63
2023/01/23 00:20:41;;;;;;;13.25;3.25;;;3.10;99.90;;;;;;4986871;28;20485;-63
2023/01/23 00:23:08;;;;;;;8.73;2.85;;;3.00;99.90;;;;;;4987277;28;20030;-63
2023/01/23 00:25:34;;;;;;;7.57;2.67;;;3.10;99.90;;;;;;4979332;28;20050;-63
2023/01/23 00:28:01;;;;;;;15.65;3.13;;;3.10;99.90;;;;;;4986979;28;20097;-63
2023/01/23 00:30:27;;;;;;;10.13;2.80;;;3.00;99.90;;;;;;4987673;28;20081;-63
2023/01/23 00:32:53;;;;;;;6.28;2.78;;;3.10;99.90;;;;;;4986837;28;20078;-63
2023/01/23 00:35:20;;;;;;;14.13;3.30;;;3.10;99.90;;;;;;4987185;28;20061;-63
2023/01/23 00:37:46;;;;;;;10.50;2.85;;;3.00;99.90;;;;;;4986784;28;20390;-64
2023/01/23 00:40:12;;;;;;;6.13;2.40;;;3.10;99.90;;;;;;4987547;28;20050;-63
2023/01/23 00:42:38;;;;;;;13.38;2.80;;;3.10;99.90;;;;;;4969880;28;20481;-63
2023/01/23 00:45:05;;;;;;;7.20;2.50;;;3.10;99.90;;;;;;4986541;28;20459;-63
2023/01/23 00:47:31;;;;;;;8.88;2.70;;;3.10;99.90;;;;;;4986863;28;20081;-63
2023/01/23 00:49:58;;;;;;;5.78;2.33;;;3.10;99.90;;;;;;4982285;28;20081;-63
2023/01/23 00:52:25;;;;;;;10.48;2.55;;;3.10;99.90;;;;;;4970386;28;20054;-63
2023/01/23 00:54:50;;;;;;;15.35;3.13;;;3.10;99.90;;;;;;4986688;28;20401;-63
2023/01/23 00:57:16;;;;;;;11.75;2.30;;;3.10;99.90;;;;;;4986801;28;20046;-63
2023/01/23 00:59:42;;;;;;;8.18;2.33;;;3.10;99.90;;;;;;4986701;28;20443;-63
2023/01/23 01:02:08;;;;;;;6.45;2.70;;;3.10;99.90;;;;;;4984643;28;20436;-63
2023/01/23 01:04:34;;;;;;;6.20;2.42;;;3.10;99.90;;;;;;4986694;28;20555;-63
2023/01/23 01:07:00;;;;;;;8.38;2.55;;;3.10;99.90;;;;;;4986282;28;20046;-63
2023/01/23 01:09:25;;;;;;;9.23;2.35;;;3.10;99.90;;;;;;4969556;28;20050;-63
2023/01/23 01:11:51;;;;;;;6.65;2.65;;;3.10;99.90;;;;;;4985163;28;20050;-63
2023/01/23 01:14:17;;;;;;;14.15;2.78;;;3.10;99.90;;;;;;4969464;28;20061;-63
2023/01/23 01:16:45;;;;;;;6.25;2.58;;;3.10;99.90;;;;;;4986643;28;20046;-63
2023/01/23 01:19:15;;;;;;;7.45;2.78;;;3.20;99.90;;;;;;4987147;28;20061;-63
2023/01/23 01:21:41;;;;;;;8.50;2.50;;;3.10;99.90;;;;;;4986858;28;20069;-63
2023/01/23 01:24:08;;;;;;;5.53;2.30;;;3.10;99.90;;;;;;4969561;28;20512;-64
2023/01/23 01:26:34;;;;;;;4.75;2.53;;;3.10;99.90;;;;;;4990661;28;20054;-63
2023/01/23 01:29:00;;;;;;;7.53;2.90;;;3.10;99.90;;;;;;4990269;28;20444;-63
2023/01/23 01:31:26;;;;;;;7.25;2.50;;;3.10;99.90;;;;;;4989547;28;20046;-63
2023/01/23 01:33:52;;;;;;;6.22;2.90;;;3.10;99.90;;;;;;4989577;28;20492;-63
2023/01/23 01:36:20;;;;;;;7.40;3.30;;;3.10;99.90;;;;;;4990122;28;20471;-63
2023/01/23 01:38:47;;;;;;;7.65;3.28;;;3.10;99.90;;;;;;4990173;28;20770;-63
2023/01/23 01:41:14;;;;;;;8.32;3.25;;;3.10;99.90;;;;;;4990099;28;20401;-63
2023/01/23 01:43:41;;;;;;;7.18;3.22;;;3.10;99.90;;;;;;4972237;28;20055;-63
2023/01/23 01:46:12;;;;;;;7.20;2.85;;;3.10;99.90;;;;;;4989715;28;20046;-63
2023/01/23 01:48:49;;;;;;;7.10;3.17;;;3.10;99.90;;;;;;4990565;28;20080;-63
2023/01/23 01:51:27;;;;;;;6.25;2.80;;;3.10;99.90;;;;;;4989395;28;20467;-63
2023/01/23 01:54:15;;;;;;;11.25;3.00;;;3.10;99.90;;;;;;4990173;28;20046;-63
2023/01/23 01:56:56;;;;;;;5.72;3.00;;;3.10;99.90;;;;;;4989874;28;20085;-63
2023/01/23 01:59:26;;;;;;;13.88;2.92;;;3.10;99.90;;;;;;4989378;28;20078;-63
2023/01/23 02:02:03;;;;;;;11.75;3.00;;;3.20;99.90;;;;;;4990046;28;20495;-63
2023/01/23 02:04:31;;;;;;;9.10;3.25;;;3.10;99.90;;;;;;4989040;28;20049;-63
2023/01/23 02:07:02;;;;;;;7.13;2.92;;;3.10;99.90;;;;;;4989725;28;20139;-63
2023/01/23 02:09:28;;;;;;;6.72;2.78;;;3.10;99.90;;;;;;4976651;28;20492;-63
2023/01/23 02:11:53;;;;;;;11.45;3.00;;;3.10;99.90;;;;;;4971990;28;20054;-63
2023/01/23 02:14:23;;;;;;;7.60;2.90;;;3.10;99.90;;;;;;4989099;28;20448;-63
2023/01/23 02:16:50;;;;;;;4.90;2.40;;;3.10;99.90;;;;;;4989414;28;20050;-63
2023/01/23 02:19:53;;;;;;;8.80;2.70;;;3.20;99.90;;;;;;4989457;28;20477;-63
2023/01/23 02:22:45;;;;;;;6.90;2.38;;;3.10;99.90;;;;;;4971920;28;20181;-63
2023/01/23 02:25:36;;;;;;;11.38;2.70;;;3.10;99.90;;;;;;4969191;28;20110;-63
2023/01/23 02:28:02;;;;;;;9.90;3.38;;;3.20;99.90;;;;;;4989809;28;20445;-63
2023/01/23 02:30:28;;;;;;;7.72;2.53;;;3.10;99.90;;;;;;4988914;28;20038;-63
2023/01/23 02:32:53;;;;;;;8.45;2.80;;;3.10;99.90;;;;;;4988978;28;20480;-63
2023/01/23 02:35:29;;;;;;;6.63;2.97;;;3.20;99.90;;;;;;4988512;28;20547;-63
2023/01/23 02:38:02;;;;;;;8.80;2.85;;;3.20;99.90;;;;;;4988900;28;20189;-63
2023/01/23 02:40:37;;;;;;;8.65;2.80;;;3.10;99.90;;;;;;4989278;28;20782;-63
2023/01/23 02:43:09;;;;;;;8.43;2.55;;;3.20;99.90;;;;;;4988611;28;20050;-63
2023/01/23 02:45:36;;;;;;;11.25;2.85;;;3.20;99.90;;;;;;4989001;28;20374;-63
2023/01/23 02:48:02;;;;;;;6.22;2.40;;;3.10;99.90;;;;;;4988994;28;20046;-63
2023/01/23 02:50:28;;;;;;;9.48;2.58;;;3.20;99.90;;;;;;4988862;28;20584;-63
2023/01/23 02:52:56;;;;;;;6.47;2.38;;;3.10;99.90;;;;;;4980418;28;20046;-63
2023/01/23 02:55:25;;;;;;;10.20;2.58;;;3.10;99.90;;;;;;4986353;28;20449;-63
2023/01/23 02:57:51;;;;;;;11.43;3.30;;;3.10;99.90;;;;;;4987662;28;20061;-63
2023/01/23 03:00:21;;;;;;;5.78;2.33;;;3.20;99.90;;;;;;4987674;28;20069;-64
2023/01/23 03:02:49;;;;;;;15.48;2.53;;;3.20;99.90;;;;;;4988826;28;20064;-63
2023/01/23 03:05:16;;;;;;;7.82;2.85;;;3.20;99.90;;;;;;4988169;28;20272;-63
2023/01/23 03:07:41;;;;;;;9.63;2.40;;;3.10;99.90;;;;;;4988500;28;20183;-63
2023/01/23 03:10:09;;;;;;;7.63;2.58;;;3.10;99.90;;;;;;4989273;28;20078;-63
2023/01/23 03:12:41;;;;;;;9.40;2.60;;;3.20;99.90;;;;;;4988011;28;20039;-64
2023/01/23 03:15:08;;;;;;;15.77;4.68;;;3.10;99.90;;;;;;4988910;28;20042;-63
2023/01/23 03:17:35;;;;;;;10.10;2.80;;;3.10;99.90;;;;;;4960639;28;20086;-63
2023/01/23 03:20:02;;;;;;;4.93;2.20;;;3.20;99.90;;;;;;4971633;28;20058;-63
2023/01/23 03:22:28;;;;;;;8.63;2.35;;;3.10;99.90;;;;;;4987327;28;20046;-63
2023/01/23 03:24:54;;;;;;;8.60;2.70;;;3.10;99.90;;;;;;4988485;28;20057;-63
2023/01/23 03:27:20;;;;;;;8.70;2.92;;;3.10;99.90;;;;;;4987904;28;20129;-63
2023/01/23 03:32:31;;;;;;;10.45;2.92;;;3.10;99.90;;;;;;4987736;28;20050;-63
2023/01/23 03:34:58;;;;;;;6.57;2.40;;;3.10;99.90;;;;;;4970270;28;20053;-64
2023/01/23 03:37:23;;;;;;;7.10;2.72;;;3.00;99.90;;;;;;4971008;28;20053;-63
2023/01/23 03:42:34;;;;;;;6.90;2.67;;;3.10;99.90;;;;;;4984061;28;20129;-63
2023/01/23 03:45:01;;;;;;;6.70;2.63;;;3.00;99.90;;;;;;4985114;28;20548;-63
2023/01/23 03:47:27;;;;;;;5.25;2.50;;;3.00;99.90;;;;;;4986735;28;20168;-63
2023/01/23 03:49:52;;;;;;;5.40;2.65;;;3.00;99.90;;;;;;4988208;28;20125;-63
2023/01/23 03:52:18;;;;;;;9.25;2.47;;;3.00;99.90;;;;;;4969924;28;20042;-63
2023/01/23 03:54:44;;;;;;;5.20;2.50;;;3.00;99.90;;;;;;4988014;28;20046;-63
2023/01/23 03:57:10;;;;;;;8.73;2.83;;;3.00;99.90;;;;;;4987478;28;20046;-63
2023/01/23 03:59:36;;;;;;;8.63;2.85;;;3.00;99.90;;;;;;4987294;28;20129;-63
2023/01/23 04:02:03;;;;;;;7.95;2.38;;;3.00;99.90;;;;;;4975961;28;20100;-64
2023/01/23 04:04:30;;;;;;;5.55;2.60;;;3.00;99.90;;;;;;4969838;28;20057;-63
2023/01/23 04:06:57;;;;;;;9.55;3.35;;;3.00;99.90;;;;;;4987832;28;20161;-63
2023/01/23 04:09:26;;;;;;;7.75;2.78;;;3.00;99.90;;;;;;4986720;28;20558;-64
2023/01/23 04:11:53;;;;;;;10.20;3.25;;;2.90;99.90;;;;;;4970488;28;20053;-64
2023/01/23 04:14:21;;;;;;;7.85;2.85;;;2.90;99.90;;;;;;4987378;28;20585;-63
2023/01/23 04:16:47;;;;;;;6.72;2.60;;;2.90;99.90;;;;;;4987624;28;20046;-64
2023/01/23 04:19:12;;;;;;;7.18;3.15;;;2.90;99.90;;;;;;4987415;28;20077;-63
2023/01/23 04:21:38;;;;;;;6.35;2.58;;;2.90;99.90;;;;;;4969028;28;20050;-64
2023/01/23 04:24:04;;;;;;;11.45;3.05;;;2.90;99.90;;;;;;4988082;28;20046;-64
2023/01/23 04:26:33;;;;;;;14.15;3.70;;;2.90;99.90;;;;;;4983749;28;20047;-63
2023/01/23 04:28:58;;;;;;;5.93;2.50;;;2.90;99.90;;;;;;4987929;28;20451;-63
2023/01/23 04:31:24;;;;;;;8.27;2.80;;;2.90;99.90;;;;;;4986328;28;20042;-63
2023/01/23 04:33:50;;;;;;;9.82;3.53;;;2.90;99.90;;;;;;4969797;28;20038;-63
2023/01/23 04:36:16;;;;;;;11.00;3.10;;;2.90;99.90;;;;;;4987332;28;20492;-63
2023/01/23 04:38:41;;;;;;;9.32;3.00;;;2.90;99.90;;;;;;4986625;28;20132;-63
2023/01/23 04:41:08;;;;;;;9.45;3.20;;;2.90;99.90;;;;;;4986988;28;20045;-63
2023/01/23 04:43:34;;;;;;;6.53;2.72;;;2.90;99.90;;;;;;4986495;28;20050;-63
2023/01/23 04:46:01;;;;;;;8.18;3.15;;;2.80;99.90;;;;;;4986385;28;20548;-63
2023/01/23 04:48:26;;;;;;;4.95;2.53;;;2.90;99.90;;;;;;4986523;28;20042;-63
2023/01/23 04:50:52;;;;;;;7.82;2.72;;;2.90;99.90;;;;;;4987161;28;20046;-63
2023/01/23 04:53:18;;;;;;;10.27;2.75;;;2.90;99.90;;;;;;4986414;28;20042;-64
2023/01/23 04:55:47;;;;;;;6.82;2.28;;;2.90;99.90;;;;;;4987118;28;20121;-63
2023/01/23 04:58:14;;;;;;;9.80;2.78;;;2.90;99.90;;;;;;4987576;28;20108;-63
2023/01/23 05:00:39;;;;;;;7.03;3.22;;;2.90;99.90;;;;;;4972942;28;20428;-63
2023/01/23 05:03:05;;;;;;;8.38;3.15;;;2.90;99.90;;;;;;4990750;28;20046;-63
2023/01/23 05:05:32;;;;;;;8.40;3.00;;;3.00;99.90;;;;;;4989951;28;20840;-63
2023/01/23 05:07:58;;;;;;;10.95;3.15;;;2.90;99.90;;;;;;4990064;28;20089;-64
2023/01/23 05:10:23;;;;;;;6.18;2.88;;;2.90;99.90;;;;;;4972602;28;20089;-64
2023/01/23 05:12:49;;;;;;;6.10;3.08;;;2.90;99.90;;;;;;4972718;28;20067;-63
2023/01/23 05:15:16;;;;;;;10.60;2.80;;;2.90;99.90;;;;;;4990003;28;20035;-63
2023/01/23 05:17:42;;;;;;;7.22;3.22;;;2.90;99.90;;;;;;4989908;28;20038;-63
2023/01/23 05:20:09;;;;;;;9.77;3.38;;;2.90;99.90;;;;;;4979176;28;20046;-63
2023/01/23 05:22:34;;;;;;;7.60;3.05;;;2.90;99.90;;;;;;4972133;28;20133;-63
2023/01/23 05:25:01;;;;;;;9.63;3.60;;;2.90;99.90;;;;;;4991239;28;20124;-63
2023/01/23 05:27:27;;;;;;;10.68;4.38;;;2.90;99.90;;;;;;4980005;28;20084;-63
2023/01/23 05:29:53;;;;;;;7.70;4.15;;;2.90;99.90;;;;;;4989692;28;20807;-63
2023/01/23 05:32:18;;;;;;;10.43;4.32;;;2.90;99.90;;;;;;4986210;28;20121;-63
2023/01/23 05:34:44;;;;;;;15.90;4.60;;;2.90;99.90;;;;;;4972078;28;20034;-63
2023/01/23 05:37:10;;;;;;;10.40;4.57;;;2.90;99.90;;;;;;4990461;28;20081;-63
2023/01/23 05:39:37;;;;;;;10.13;4.60;;;2.90;99.90;;;;;;4972372;28;20077;-63
2023/01/23 05:42:03;;;;;;;11.25;4.30;;;2.90;99.90;;;;;;4990900;28;20527;-63
2023/01/23 05:44:29;;;;;;;7.95;4.15;;;2.90;99.90;;;;;;4989738;28;20066;-63
2023/01/23 05:46:55;;;;;;;9.57;4.25;;;2.90;99.90;;;;;;4990071;28;20481;-63
2023/01/23 05:49:21;;;;;;;10.60;3.92;;;2.90;99.90;;;;;;4972476;28;20085;-63
2023/01/23 05:51:46;;;;;;;8.15;4.28;;;2.90;99.90;;;;;;4972549;28;20088;-63
2023/01/23 05:54:12;;;;;;;9.05;4.43;;;2.90;99.90;;;;;;4989913;28;20039;-63
2023/01/23 05:56:39;;;;;;;12.75;4.25;;;2.90;99.90;;;;;;4989794;28;20078;-63
2023/01/23 05:59:05;;;;;;;10.65;4.70;;;2.90;99.90;;;;;;4972086;28;20096;-64
2023/01/23 06:01:31;;;;;;;13.98;4.03;;;2.90;99.90;;;;;;4989073;28;20054;-63
2023/01/23 06:03:57;;;;;;;13.77;4.45;;;2.90;99.90;;;;;;4958849;28;20397;-63
2023/01/23 06:06:22;;;;;;;8.05;4.55;;;2.80;99.90;;;;;;4989406;28;20062;-63
2023/01/23 06:08:48;;;;;;;11.80;4.65;;;2.80;99.90;;;;;;4983219;28;20616;-63
2023/01/23 06:11:14;;;;;;;8.25;4.22;;;2.80;99.90;;;;;;4975469;28;20440;-64
2023/01/23 06:13:39;;;;;;;11.30;4.05;;;2.80;99.90;;;;;;4972260;28;20073;-63
2023/01/23 06:16:07;;;;;;;6.22;3.75;;;2.80;99.90;;;;;;4989722;28;20089;-63
2023/01/23 06:18:32;;;;;;;9.38;3.80;;;2.80;99.90;;;;;;4989637;28;20050;-63
2023/01/23 06:20:59;;;;;;;9.02;3.58;;;2.80;99.90;;;;;;4989203;28;20936;-63
2023/01/23 06:23:26;;;;;;;8.10;4.45;;;2.90;99.90;;;;;;4988970;28;20050;-63
2023/01/23 06:25:52;;;;;;;6.55;3.70;;;2.90;99.90;;;;;;4989577;28;20050;-63
2023/01/23 06:28:18;;;;;;;5.60;3.50;;;2.80;99.90;;;;;;4989242;28;20733;-64
2023/01/23 06:30:45;;;;;;;7.65;3.47;;;2.90;99.90;;;;;;4972479;28;20104;-64
2023/01/23 06:33:11;;;;;;;7.93;3.67;;;2.90;99.90;;;;;;4989341;28;20105;-63
2023/01/23 06:35:36;;;;;;;6.20;3.50;;;2.80;99.90;;;;;;4989271;28;20473;-64
2023/01/23 06:38:03;;;;;;;4.10;2.80;;;2.80;99.90;;;;;;4989155;28;20046;-63
2023/01/23 06:40:28;;;;;;;9.10;3.40;;;2.80;99.90;;;;;;4988781;28;20089;-63
2023/01/23 06:42:55;;;;;;;11.18;3.35;;;2.80;99.90;;;;;;4989210;28;20050;-63
2023/01/23 06:45:21;;;;;;;9.05;3.28;;;2.90;99.90;;;;;;4989000;28;20053;-63
2023/01/23 06:47:47;;;;;;;7.68;3.20;;;2.90;99.90;;;;;;4971541;28;20057;-63
2023/01/23 06:50:12;;;;;;;8.35;2.95;;;2.90;99.90;;;;;;4989081;28;20042;-63
2023/01/23 06:52:39;;;;;;;7.65;2.97;;;2.80;99.90;;;;;;4970838;28;20497;-64
2023/01/23 06:55:05;;;;;;;4.78;2.40;;;2.80;99.90;;;;;;4971372;28;20041;-63
2023/01/23 06:57:32;;;;;;;8.40;2.70;;;2.80;99.90;;;;;;4988446;28;20570;-63
2023/01/23 06:59:58;;;;;;;5.70;2.72;;;2.80;99.90;;;;;;4988677;28;20039;-63
2023/01/23 07:02:24;;;;;;;10.65;2.53;;;2.80;99.90;;;;;;4987819;28;20386;-63
2023/01/23 07:04:50;;;;;;;3.13;2.50;;;2.80;99.90;;;;;;4981014;28;20064;-63
2023/01/23 07:07:16;;;;;;;5.88;2.42;;;2.80;99.90;;;;;;4988157;28;20413;-63
2023/01/23 07:09:42;;;;;;;3.30;1.98;;;2.80;99.90;;;;;;4988796;28;20831;-63
2023/01/23 07:12:08;;;;;;;3.42;1.60;;;2.80;99.90;;;;;;4970575;28;20055;-63
2023/01/23 07:14:34;;;;;;;3.78;1.90;;;2.80;99.90;;;;;;4967692;28;20046;-63
2023/01/23 07:16:59;;;;;;;3.95;1.60;;;2.80;99.90;;;;;;4970693;28;20107;-63
2023/01/23 07:19:25;;;;;;;3.85;1.50;;;2.80;99.90;;;;;;4987939;28;20129;-63
2023/01/23 07:21:51;;;;;;;3.10;1.88;;;2.80;99.90;;;;;;4987521;28;20042;-63
2023/01/23 07:24:17;;;;;;;6.70;1.90;;;2.70;99.90;;;;;;4987767;28;20073;-63
2023/01/23 07:26:42;;;;;;;4.10;1.90;;;2.80;99.90;;;;;;4988707;28;20143;-63
2023/01/23 07:29:08;;;;;;;4.22;1.70;;;2.80;99.90;;;;;;4970711;28;20050;-63
2023/01/23 07:31:34;;;;;;;5.15;2.10;;;2.80;99.90;;;;;;4971162;28;20049;-63
2023/01/23 07:34:00;;;;;;;2.53;2.17;;;2.80;99.90;;;;;;4970337;28;20046;-63
2023/01/23 07:36:27;;;;;;;4.18;2.38;;;2.80;99.90;;;;;;4987447;28;20066;-63
2023/01/23 07:38:54;;;;;;;4.40;2.85;;;2.80;99.90;;;;;;4988914;28;20054;-63
2023/01/23 07:41:20;;;;;;;4.13;2.70;;;2.90;99.90;;;;;;4987559;28;20049;-63
2023/01/23 07:43:45;;;;;;;2.70;2.50;;;2.90;99.90;;;;;;4988238;28;20042;-63
2023/01/23 07:46:11;;;;;;;9.07;3.00;;;2.90;99.90;;;;;;4970224;28;20058;-63
2023/01/23 07:48:37;;;;;;;5.88;4.20;;;2.90;99.90;;;;;;4987977;28;20109;-63
2023/01/23 07:51:04;;;;;;;5.45;4.45;;;2.90;99.90;;;;;;4987797;28;20378;-64
2023/01/23 07:53:30;;;;;;;9.77;5.00;;;2.90;99.90;;;;;;4969587;28;20046;-64
2023/01/23 07:55:56;;;;;;;13.15;5.05;;;2.90;99.90;;;;;;4970765;28;20168;-63
2023/01/23 07:58:22;;;;;;;8.55;5.68;;;2.90;99.90;;;;;;4985596;28;20089;-63
2023/01/23 08:00:47;;;;;;;11.35;5.82;;;3.00;99.90;;;;;;4969317;28;20066;-63
2023/01/23 08:03:14;;;;;;;10.35;5.60;;;3.00;99.90;;;;;;4986140;28;20137;-63
2023/01/23 08:05:40;;;;;;;13.15;5.90;;;3.00;99.90;;;;;;4963485;28;20055;-63
2023/01/23 08:08:07;;;;;;;15.13;7.18;;;3.00;99.90;;;;;;4967274;28;20058;-63
2023/01/23 08:10:34;;;;;;;8.82;5.88;;;3.00;99.90;;;;;;4967293;28;20046;-63
2023/01/23 08:13:00;;;;;;;11.68;6.78;;;2.90;99.90;;;;;;4968086;28;20415;-63
2023/01/23 08:15:25;;;;;;;12.50;7.15;;;3.00;99.90;;;;;;4981702;28;20043;-63
2023/01/23 08:17:52;;;;;;;11.45;7.47;;;3.00;99.90;;;;;;4964005;28;20042;-63
2023/01/23 08:20:18;;;;;;;9.40;6.57;;;3.00;99.90;;;;;;4965585;28;20043;-63
2023/01/23 08:22:44;;;;;;;10.55;6.90;;;3.00;99.90;;;;;;4979354;28;20061;-63
2023/01/23 08:25:10;;;;;;;14.35;7.32;;;3.00;99.90;;;;;;4967761;28;20074;-63
2023/01/23 08:27:36;;;;;;;10.65;6.60;;;3.00;99.90;;;;;;4967913;28;20125;-63
2023/01/23 08:30:04;;;;;;;14.95;7.75;;;3.00;99.90;;;;;;4967435;28;20042;-64
2023/01/23 08:32:29;;;;;;;13.85;8.38;;;3.00;99.90;;;;;;4966248;28;20493;-63
2023/01/23 08:34:55;;;;;;;16.08;8.50;;;3.00;99.90;;;;;;4972053;28;20081;-64
2023/01/23 08:37:21;;;;;;;14.20;8.15;;;3.10;99.90;;;;;;4966733;28;20298;-63
2023/01/23 08:39:47;;;;;;;12.18;7.57;;;3.10;99.90;;;;;;4954586;28;20082;-63
2023/01/23 08:42:12;;;;;;;15.40;7.60;;;3.10;99.90;;;;;;4971217;28;20031;-64
2023/01/23 08:44:38;;;;;;;11.45;7.20;;;3.10;99.90;;;;;;4972148;28;20055;-64
2023/01/23 08:47:04;;;;;;;14.10;8.00;;;3.10;99.90;;;;;;4971517;28;20053;-64
2023/01/23 08:49:30;;;;;;;9.23;7.30;;;3.10;99.90;;;;;;4971607;28;20055;-63
2023/01/23 08:51:58;;;;;;;11.77;7.85;;;3.10;99.90;;;;;;4971769;28;20512;-64
2023/01/23 08:54:24;;;;;;;12.85;7.93;;;3.10;99.90;;;;;;4970293;28;20548;-63
2023/01/23 08:56:50;;;;;;;11.05;7.80;;;3.10;99.90;;;;;;4966506;28;20058;-64
2023/01/23 08:59:16;;;;;;;13.93;7.22;;;3.10;99.90;;;;;;4967338;28;20464;-64
2023/01/23 09:01:41;;;;;;;12.15;7.70;;;3.20;99.90;;;;;;4980222;28;20581;-63
2023/01/23 09:04:07;;;;;;;15.25;7.72;;;3.20;99.90;;;;;;4968113;28;20047;-63
2023/01/23 09:06:33;;;;;;;11.13;7.40;;;3.20;99.90;;;;;;4975342;28;20080;-64
2023/01/23 09:08:58;;;;;;;11.30;7.50;;;3.20;99.90;;;;;;4986385;28;20054;-63
2023/01/23 09:11:24;;;;;;;9.02;7.00;;;3.20;99.90;;;;;;4970424;28;20077;-64
2023/01/23 09:13:50;;;;;;;14.40;6.75;;;3.20;99.90;;;;;;4971880;28;20049;-63
2023/01/23 09:16:16;;;;;;;9.88;7.20;;;3.20;99.90;;;;;;4966392;28;20039;-63
2023/01/23 09:18:42;;;;;;;13.00;7.78;;;3.20;99.90;;;;;;4971159;28;20051;-64
2023/01/23 09:21:12;;;;;;;16.73;7.97;;;3.30;99.90;;;;;;4970278;28;20046;-63
2023/01/23 09:23:37;;;;;;;11.40;7.20;;;3.30;99.90;;;;;;4970631;28;20059;-63
2023/01/23 09:26:08;;;;;;;11.68;7.40;;;3.30;99.90;;;;;;4971509;28;20050;-63
2023/01/23 09:28:40;;;;;;;12.30;6.78;;;3.30;99.90;;;;;;4967070;28;20049;-64
2023/01/23 09:31:09;;;;;;;9.80;6.95;;;3.30;99.90;;;;;;4964938;28;20102;-63
2023/01/23 09:33:35;;;;;;;10.55;6.57;;;3.30;99.90;;;;;;4969738;28;20124;-64
2023/01/23 09:36:04;;;;;;;11.00;6.72;;;3.40;99.90;;;;;;4971353;28;20055;-64
2023/01/23 09:38:32;;;;;;;11.90;7.20;;;3.40;99.90;;;;;;4968744;28;20061;-63
2023/01/23 09:40:59;;;;;;;12.55;7.75;;;3.40;99.90;;;;;;4970814;28;20059;-64
2023/01/23 09:43:31;;;;;;;14.13;6.90;;;3.50;99.90;;;;;;4969852;28;20090;-63
2023/01/23 09:46:09;;;;;;;10.57;7.07;;;3.50;99.90;;;;;;4969054;28;20090;-63
2023/01/23 09:49:03;;;;;;;12.02;6.60;;;3.50;99.90;;;;;;4968526;28;20132;-64
2023/01/23 09:51:44;;;;;;;11.52;6.80;;;3.60;99.90;;;;;;4962490;28;20054;-63
2023/01/23 09:54:31;;;;;;;11.80;7.38;;;3.60;99.90;;;;;;4982023;28;20054;-64
2023/01/23 09:57:02;;;;;;;9.60;7.47;;;3.60;99.90;;;;;;4967347;28;20592;-63
2023/01/23 09:59:44;;;;;;;;;;;3.60;99.90;;;;;;4969433;28;20522;-63
2023/01/23 10:02:21;;;;;;;9.88;7.10;;;3.70;99.90;;;;;;4948790;28;20414;-63
2023/01/23 10:04:50;;;;;;;15.65;7.82;;;3.70;99.90;;;;;;4968673;28;20038;-63
2023/01/23 10:07:28;;;;;;;10.70;7.50;;;3.70;99.90;;;;;;4951490;28;20071;-63
2023/01/23 10:10:13;;;;;;;11.20;6.40;;;3.70;99.90;;;;;;4970903;28;20086;-63
2023/01/23 10:13:09;;;;;;;10.52;6.65;;;3.70;99.90;;;;;;4968264;28;20047;-64
2023/01/23 10:16:09;;;;;;;11.98;6.63;;;3.80;99.90;;;;;;4969590;28;20365;-63
2023/01/23 10:19:01;;;;;;;9.52;7.28;;;3.80;99.90;;;;;;4961454;28;20051;-63
2023/01/23 10:21:30;;;;;;;9.88;7.22;;;3.80;99.90;;;;;;4969215;28;20125;-63
2023/01/23 10:24:14;;;;;;;13.93;6.80;;;3.80;99.90;;;;;;4969976;28;20086;-63
2023/01/23 10:26:44;;;;;;;17.48;7.63;;;3.80;99.90;;;;;;4967950;28;20055;-63
2023/01/23 10:29:37;;;;;;;8.77;6.65;;;3.80;99.90;;;;;;4969305;28;20178;-64
2023/01/23 10:32:11;;;;;;;13.77;7.15;;;3.80;99.90;;;;;;4970138;28;20536;-63
2023/01/23 10:34:58;;;;;;;10.88;7.53;;;3.90;99.90;;;;;;4967529;28;20054;-63
2023/01/23 10:37:39;;;;;;;11.77;6.80;;;3.80;99.90;;;;;;4969407;28;20050;-63
2023/01/23 10:40:10;;;;;;;10.70;7.22;;;3.80;99.90;;;;;;4968405;28;20513;-63
2023/01/23 10:42:36;;;;;;;;;;;3.80;99.90;;;;;;4969222;28;20039;-64
2023/01/23 10:45:02;;;;;;;14.25;7.00;;;3.80;99.90;;;;;;4966683;28;19930;-63
2023/01/23 10:47:41;;;;;;;10.88;7.25;;;3.80;99.90;;;;;;4966234;28;20058;-63
2023/01/23 10:50:08;;;;;;;12.48;7.70;;;3.80;99.90;;;;;;4968833;28;20077;-63
2023/01/23 10:52:43;;;;;;;15.20;9.07;;;3.80;99.90;;;;;;4965929;28;20039;-63
2023/01/23 10:55:18;;;;;;;13.40;8.13;;;3.90;99.90;;;;;;4967725;28;20057;-63
2023/01/23 10:57:51;;;;;;;16.75;6.88;;;3.90;99.90;;;;;;4968575;28;20528;-63
2023/01/23 11:00:43;;;;;;;12.65;7.07;;;3.90;99.90;;;;;;4966929;28;20091;-64
2023/01/23 11:03:22;;;;;;;11.90;8.57;;;4.00;99.90;;;;;;4968221;28;20077;-63
2023/01/23 11:06:05;;;;;;;11.32;7.35;;;3.90;99.90;;;;;;4970799;28;20505;-63
2023/01/23 11:08:36;;;;;;;13.25;8.07;;;4.00;99.90;;;;;;4984578;28;20481;-63
2023/01/23 11:11:17;;;;;;;;;;;4.00;99.90;;;;;;4970532;28;20053;-64
2023/01/23 11:13:46;;;;;;;12.52;7.50;;;4.00;99.90;;;;;;4987068;28;19925;-64
2023/01/23 11:16:30;;;;;;;13.60;7.20;;;4.10;99.90;;;;;;4987693;28;20097;-63
2023/01/23 11:19:08;;;;;;;10.65;7.75;;;4.10;99.90;;;;;;4988486;28;20100;-63
2023/01/23 11:21:54;;;;;;;13.85;8.10;;;4.10;99.90;;;;;;4969609;28;20125;-63
2023/01/23 11:24:20;;;;;;;13.20;7.95;;;4.10;99.90;;;;;;4982841;28;20051;-63
2023/01/23 11:26:46;;;;;;;14.00;7.57;;;4.20;99.90;;;;;;4987468;28;20500;-63
2023/01/23 11:29:24;;;;;;;10.38;7.53;;;4.20;99.90;;;;;;4987485;28;20515;-64
2023/01/23 11:32:01;;;;;;;10.50;8.00;;;4.20;99.90;;;;;;4969501;28;20046;-64
2023/01/23 11:34:39;;;;;;;13.55;8.05;;;4.30;99.90;;;;;;4986277;28;20050;-63
2023/01/23 11:37:11;;;;;;;13.07;7.38;;;4.30;99.90;;;;;;4987168;28;20054;-63
2023/01/23 11:39:56;;;;;;;10.65;6.88;;;4.20;99.90;;;;;;4984456;28;20057;-63
2023/01/23 11:42:25;;;;;;;11.15;6.28;;;4.30;99.90;;;;;;4986593;28;20078;-63
2023/01/23 11:44:51;;;;;;;12.00;7.30;;;4.30;99.90;;;;;;4985089;28;20445;-63
2023/01/23 11:47:32;;;;;;;8.68;6.53;;;4.30;99.90;;;;;;4951981;28;20309;-63
2023/01/23 11:50:21;;;;;;;14.18;7.53;;;4.30;99.90;;;;;;4987166;28;20390;-63
2023/01/23 11:52:49;;;;;;;11.98;8.13;;;4.40;99.90;;;;;;4986979;28;20524;-64
2023/01/23 11:55:56;;;;;;;12.20;7.55;;;4.30;99.90;;;;;;4986931;28;20432;-63
2023/01/23 11:58:31;;;;;;;12.50;7.70;;;4.40;99.90;;;;;;4958867;28;20520;-64
2023/01/23 12:01:08;;;;;;;10.93;7.57;;;4.40;99.90;;;;;;4986035;28;20074;-64
2023/01/23 12:03:40;;;;;;;11.65;7.47;;;4.40;99.90;;;;;;4985800;28;20048;-64
2023/01/23 12:06:29;;;;;;;11.50;7.28;;;4.30;99.90;;;;;;4978152;28;20555;-63
2023/01/23 12:09:20;;;;;;;13.07;7.63;;;4.30;99.90;;;;;;4943716;28;20532;-64
2023/01/23 12:11:52;;;;;;;;;;;4.30;99.90;;;;;;4987768;28;20100;-63
2023/01/23 12:14:38;;;;;;;8.35;6.60;;;4.40;99.90;;;;;;4987100;28;19925;-63
2023/01/23 12:17:11;;;;;;;11.32;7.20;;;4.40;99.90;;;;;;4986551;28;20534;-63
2023/01/23 12:19:49;;;;;;;10.10;6.95;;;4.40;99.90;;;;;;4985725;28;20046;-63
2023/01/23 12:22:39;;;;;;;14.32;7.97;;;4.30;99.90;;;;;;4985618;28;20054;-64
2023/01/23 12:25:26;;;;;;;14.18;8.02;;;4.30;99.90;;;;;;4955853;28;20075;-63
2023/01/23 12:28:31;;;;;;;8.65;7.40;;;4.30;99.90;;;;;;4985969;28;20050;-63
2023/01/23 12:31:09;;;;;;;11.27;7.53;;;4.30;99.90;;;;;;4967030;28;20504;-64
2023/01/23 12:33:49;;;;;;;16.15;8.05;;;4.30;99.90;;;;;;4985793;28;20054;-64
2023/01/23 12:36:41;;;;;;;10.15;7.28;;;4.30;99.90;;;;;;4986603;28;20136;-64
2023/01/23 12:39:37;;;;;;;11.23;6.72;;;4.30;99.90;;;;;;4985942;28;20349;-63
2023/01/23 12:42:09;;;;;;;9.73;6.70;;;4.30;99.90;;;;;;4987480;28;20055;-64
2023/01/23 12:44:57;;;;;;;10.35;6.47;;;4.30;99.90;;;;;;4981663;28;20505;-64
2023/01/23 12:47:45;;;;;;;10.32;6.97;;;4.30;99.90;;;;;;4986292;28;20050;-64
2023/01/23 12:50:32;;;;;;;12.00;7.28;;;4.40;99.90;;;;;;4945459;28;20054;-63
2023/01/23 12:53:12;;;;;;;8.85;6.95;;;4.30;99.90;;;;;;4986340;28;20421;-64
2023/01/23 12:55:49;;;;;;;10.60;6.85;;;4.40;99.90;;;;;;4986395;28;20096;-64
2023/01/23 12:58:17;;;;;;;9.25;6.40;;;4.30;99.90;;;;;;4987584;28;20124;-64
2023/01/23 13:01:14;;;;;;;11.32;6.03;;;4.30;99.90;;;;;;4984577;28;20038;-64
2023/01/23 13:03:57;;;;;;;9.70;6.70;;;4.30;99.90;;;;;;4967853;28;20054;-63
2023/01/23 13:06:54;;;;;;;11.95;6.65;;;4.40;99.90;;;;;;4986915;28;20061;-63
2023/01/23 13:09:55;;;;;;;9.00;7.15;;;4.40;99.90;;;;;;4981037;28;20062;-63
2023/01/23 13:12:26;;;;;;;10.20;6.65;;;4.50;99.90;;;;;;4962711;28;20053;-64
2023/01/23 13:15:12;;;;;;;11.75;6.40;;;4.40;99.90;;;;;;4986892;28;20541;-63